Observation data for Seminole on 12/10/2018      Previous  Date       Current Mesonet Observations  Soil Data  Daily Summary Page  Observations in Plain Language
KSM1 100600Z 31005KT M01/M02 A3039 RMK A01 T10111019  RH  095%=      5-min Rain = 0
KSM1 100605Z 31005KT M01/M02 A3039 RMK A01 T10101018  RH  095%=      5-min Rain = 0
KSM1 100610Z 31005KT M01/M02 A3039 RMK A01 T10091016  RH  096%=      5-min Rain = 0
KSM1 100615Z 31005KT M01/M02 A3039 RMK A01 T10081016  RH  095%=      5-min Rain = 0
KSM1 100620Z 31005KT M01/M02 A3038 RMK A01 T10081015  RH  095%=      5-min Rain = 0
KSM1 100625Z 31005KT M01/M02 A3038 RMK A01 T10071016  RH  095%=      5-min Rain = 0
KSM1 100630Z 30005KT M01/M02 A3038 RMK A01 T10071016  RH  095%=      5-min Rain = 0
KSM1 100635Z 30005KT M01/M02 A3038 RMK A01 T10071016  RH  095%=      5-min Rain = 0
KSM1 100640Z 30005KT M01/M02 A3038 RMK A01 T10071016  RH  094%=      5-min Rain = 0
KSM1 100645Z 30005KT M01/M02 A3038 RMK A01 T10071016  RH  094%=      5-min Rain = 0
KSM1 100650Z 29005KT M01/M02 A3038 RMK A01 T10071016  RH  094%=      5-min Rain = 0
KSM1 100655Z 29005KT M01/M02 A3037 RMK A01 T10071016  RH  095%=      5-min Rain = 0
KSM1 100700Z 29005KT M01/M01 A3037 RMK A01 T10061014  RH  095%=      5-min Rain = 0
KSM1 100705Z 30005KT M01/M01 A3037 RMK A01 T10051014  RH  095%=      5-min Rain = 0
KSM1 100710Z 30005KT M01/M02 A3037 RMK A01 T10071015  RH  095%=      5-min Rain = 0
KSM1 100715Z 30005KT M01/M02 A3036 RMK A01 T10091017  RH  095%=      5-min Rain = 0
KSM1 100720Z 31005KT M01/M02 A3036 RMK A01 T10091017  RH  095%=      5-min Rain = 0
KSM1 100725Z 30005KT M01/M02 A3036 RMK A01 T10091017  RH  096%=      5-min Rain = 0
KSM1 100730Z 31005KT M01/M02 A3036 RMK A01 T10091016  RH  096%=      5-min Rain = 0
KSM1 100735Z 30005KT M01/M02 A3036 RMK A01 T10091016  RH  096%=      5-min Rain = 0
KSM1 100740Z 31005KT M01/M02 A3036 RMK A01 T10091016  RH  096%=      5-min Rain = 0
KSM1 100745Z 31005KT M01/M02 A3036 RMK A01 T10101017  RH  096%=      5-min Rain = 0
KSM1 100750Z 30005KT M01/M02 A3036 RMK A01 T10081015  RH  096%=      5-min Rain = 0
KSM1 100755Z 29005KT M01/M01 A3036 RMK A01 T10071014  RH  096%=      5-min Rain = 0
KSM1 100800Z 29006KT M01/M02 A3036 RMK A01 T10071015  RH  095%=      5-min Rain = 0
KSM1 100805Z 29006KT M01/M02 A3036 RMK A01 T10071015  RH  095%=      5-min Rain = 0
KSM1 100810Z 29005KT M01/M02 A3036 RMK A01 T10071015  RH  095%=      5-min Rain = 0
KSM1 100815Z 30006KT M01/M02 A3036 RMK A01 T10071016  RH  095%=      5-min Rain = 0
KSM1 100820Z 30005KT M01/M02 A3036 RMK A01 T10071016  RH  095%=      5-min Rain = 0
KSM1 100825Z 30005KT M01/M02 A3036 RMK A01 T10081016  RH  095%=      5-min Rain = 0
KSM1 100830Z 30006KT M01/M02 A3035 RMK A01 T10081016  RH  095%=      5-min Rain = 0
KSM1 100835Z 30006KT M01/M02 A3035 RMK A01 T10081016  RH  095%=      5-min Rain = 0
KSM1 100840Z 30006KT M01/M02 A3035 RMK A01 T10091017  RH  095%=      5-min Rain = 0
KSM1 100845Z 30006KT M01/M02 A3035 RMK A01 T10091017  RH  095%=      5-min Rain = 0
KSM1 100850Z 28006KT M01/M02 A3035 RMK A01 T10091018  RH  095%=      5-min Rain = 0
KSM1 100855Z 27006KT M01/M02 A3035 RMK A01 T10091018  RH  095%=      5-min Rain = 0
KSM1 100900Z 27006KT M01/M02 A3035 RMK A01 T10101019  RH  094%=      5-min Rain = 0
KSM1 100905Z 26007KT M01/M02 A3035 RMK A01 T10131022  RH  094%=      5-min Rain = 0
KSM1 100910Z 27007KT M02/M03 A3035 RMK A01 T10161026  RH  094%=      5-min Rain = 0
KSM1 100915Z 27006KT M02/M03 A3035 RMK A01 T10191028  RH  094%=      5-min Rain = 0
KSM1 100920Z 28006KT M02/M03 A3035 RMK A01 T10201029  RH  094%=      5-min Rain = 0
KSM1 100925Z 28005KT M02/M03 A3035 RMK A01 T10201028  RH  095%=      5-min Rain = 0
KSM1 100930Z 28005KT M02/M03 A3035 RMK A01 T10191027  RH  095%=      5-min Rain = 0
KSM1 100935Z 28005KT M02/M03 A3035 RMK A01 T10191026  RH  095%=      5-min Rain = 0
KSM1 100940Z 28005KT M02/M03 A3035 RMK A01 T10191027  RH  095%=      5-min Rain = 0
KSM1 100945Z 29005KT M02/M03 A3035 RMK A01 T10191027  RH  095%=      5-min Rain = 0
KSM1 100950Z 27005KT M02/M03 A3035 RMK A01 T10191027  RH  095%=      5-min Rain = 0
KSM1 100955Z 28005KT M02/M03 A3035 RMK A01 T10191027  RH  095%=      5-min Rain = 0
KSM1 101000Z 28006KT M02/M03 A3035 RMK A01 T10201028  RH  095%=      5-min Rain = 0
KSM1 101005Z 28005KT M02/M03 A3035 RMK A01 T10211029  RH  095%=      5-min Rain = 0
KSM1 101010Z 29005KT M02/M03 A3035 RMK A01 T10201028  RH  095%=      5-min Rain = 0
KSM1 101015Z 29005KT M02/M03 A3034 RMK A01 T10191026  RH  095%=      5-min Rain = 0
KSM1 101020Z 28005KT M02/M03 A3034 RMK A01 T10181026  RH  095%=      5-min Rain = 0
KSM1 101025Z 29005KT M02/M03 A3034 RMK A01 T10181026  RH  095%=      5-min Rain = 0
KSM1 101030Z 29005KT M02/M03 A3034 RMK A01 T10181026  RH  095%=      5-min Rain = 0
KSM1 101035Z 29005KT M02/M03 A3034 RMK A01 T10181026  RH  095%=      5-min Rain = 0
KSM1 101040Z 29005KT M02/M03 A3034 RMK A01 T10181026  RH  095%=      5-min Rain = 0
KSM1 101045Z 30005KT M02/M03 A3034 RMK A01 T10181026  RH  095%=      5-min Rain = 0
KSM1 101050Z 29005KT M02/M03 A3034 RMK A01 T10181026  RH  095%=      5-min Rain = 0
KSM1 101055Z 29005KT M02/M03 A3034 RMK A01 T10181026  RH  095%=      5-min Rain = 0
KSM1 101100Z 30005KT M02/M03 A3034 RMK A01 T10191026  RH  095%=      5-min Rain = 0
KSM1 101105Z 30006KT M02/M03 A3034 RMK A01 T10201028  RH  095%=      5-min Rain = 0
KSM1 101110Z 30005KT M02/M03 A3034 RMK A01 T10211028  RH  095%=      5-min Rain = 0
KSM1 101115Z 30005KT M02/M03 A3034 RMK A01 T10201027  RH  096%=      5-min Rain = 0
KSM1 101120Z 30005KT M02/M03 A3034 RMK A01 T10201027  RH  096%=      5-min Rain = 0
KSM1 101125Z 28005KT M02/M03 A3034 RMK A01 T10211028  RH  096%=      5-min Rain = 0
KSM1 101130Z 27005KT M02/M03 A3034 RMK A01 T10191025  RH  096%=      5-min Rain = 0
KSM1 101135Z 28005KT M02/M03 A3034 RMK A01 T10191026  RH  095%=      5-min Rain = 0
KSM1 101140Z 28006KT M02/M03 A3034 RMK A01 T10201028  RH  095%=      5-min Rain = 0
KSM1 101145Z 29006KT M02/M03 A3034 RMK A01 T10221031  RH  094%=      5-min Rain = 0
KSM1 101150Z 29006KT M02/M03 A3035 RMK A01 T10221030  RH  095%=      5-min Rain = 0
KSM1 101155Z 29006KT M02/M03 A3035 RMK A01 T10201028  RH  095%=      5-min Rain = 0
KSM1 101200Z 29005KT M02/M03 A3035 RMK A01 T10181026  RH  095%=      5-min Rain = 0
KSM1 101205Z 29006KT M02/M02 A3035 RMK A01 T10171024  RH  095%=      5-min Rain = 0
KSM1 101210Z 29005KT M02/M02 A3035 RMK A01 T10161024  RH  095%=      5-min Rain = 0
KSM1 101215Z 29005KT M02/M03 A3035 RMK A01 T10171025  RH  095%=      5-min Rain = 0
KSM1 101220Z 28005KT M02/M02 A3035 RMK A01 T10161024  RH  095%=      5-min Rain = 0
KSM1 101225Z 29005KT M02/M02 A3035 RMK A01 T10151023  RH  095%=      5-min Rain = 0
KSM1 101230Z 29005KT M02/M02 A3036 RMK A01 T10151023  RH  095%=      5-min Rain = 0
KSM1 101235Z 29005KT M02/M02 A3036 RMK A01 T10151023  RH  095%=      5-min Rain = 0
KSM1 101240Z 29005KT M01/M02 A3036 RMK A01 T10141022  RH  095%=      5-min Rain = 0
KSM1 101245Z 29005KT M01/M02 A3036 RMK A01 T10141022  RH  095%=      5-min Rain = 0
KSM1 101250Z 30004KT M01/M02 A3036 RMK A01 T10141022  RH  095%=      5-min Rain = 0
KSM1 101255Z 30004KT M01/M02 A3036 RMK A01 T10141022  RH  095%=      5-min Rain = 0
KSM1 101300Z 30005KT M02/M02 A3036 RMK A01 T10151023  RH  095%=      5-min Rain = 0
KSM1 101305Z 30005KT M02/M02 A3036 RMK A01 T10161023  RH  095%=      5-min Rain = 0
KSM1 101310Z 30006KT M02/M02 A3036 RMK A01 T10161023  RH  095%=      5-min Rain = 0
KSM1 101315Z 30006KT M02/M02 A3036 RMK A01 T10151023  RH  095%=      5-min Rain = 0
KSM1 101320Z 30006KT M01/M02 A3036 RMK A01 T10141023  RH  095%=      5-min Rain = 0
KSM1 101325Z 30006KT M01/M02 A3036 RMK A01 T10141023  RH  095%=      5-min Rain = 0
KSM1 101330Z 30006KT M02/M02 A3037 RMK A01 T10151024  RH  094%=      5-min Rain = 0
KSM1 101335Z 30006KT M02/M03 A3037 RMK A01 T10161025  RH  094%=      5-min Rain = 0
KSM1 101340Z 31006KT M02/M03 A3037 RMK A01 T10171026  RH  094%=      5-min Rain = 0
KSM1 101345Z 31006KT M02/M03 A3037 RMK A01 T10171026  RH  094%=      5-min Rain = 0
KSM1 101350Z 30005KT M02/M03 A3037 RMK A01 T10171026  RH  094%=      5-min Rain = 0
KSM1 101355Z 30005KT M02/M03 A3036 RMK A01 T10171026  RH  094%=      5-min Rain = 0
KSM1 101400Z 30005KT M02/M03 A3036 RMK A01 T10181027  RH  094%=      5-min Rain = 0
KSM1 101405Z 31005KT M02/M03 A3036 RMK A01 T10201030  RH  093%=      5-min Rain = 0
KSM1 101410Z 31005KT M02/M03 A3036 RMK A01 T10201029  RH  094%=      5-min Rain = 0
KSM1 101415Z 31006KT M02/M03 A3036 RMK A01 T10181028  RH  094%=      5-min Rain = 0
KSM1 101420Z 31006KT M02/M03 A3036 RMK A01 T10161025  RH  094%=      5-min Rain = 0
KSM1 101425Z 31006KT M01/M02 A3036 RMK A01 T10121022  RH  094%=      5-min Rain = 0
KSM1 101430Z 31006KT M01/M02 A3037 RMK A01 T10091020  RH  093%=      5-min Rain = 0
KSM1 101435Z 31006KT M01/M02 A3037 RMK A01 T10071019  RH  092%=      5-min Rain = 0
KSM1 101440Z 30006KT M00/M02 A3037 RMK A01 T10041017  RH  092%=      5-min Rain = 0
KSM1 101445Z 30006KT M00/M02 A3037 RMK A01 T10021015  RH  091%=      5-min Rain = 0
KSM1 101450Z 30005KT 00/M01 A3037 RMK A01 T00011013  RH  091%=      5-min Rain = 0
KSM1 101455Z 31004KT 00/M01 A3037 RMK A01 T00031010  RH  092%=      5-min Rain = 0
KSM1 101500Z 31004KT 01/M01 A3037 RMK A01 T00061008  RH  091%=      5-min Rain = 0
KSM1 101505Z 31004KT 01/M01 A3038 RMK A01 T00081007  RH  090%=      5-min Rain = 0
KSM1 101510Z 31004KT 01/M01 A3037 RMK A01 T00111005  RH  090%=      5-min Rain = 0
KSM1 101515Z 30004KT 01/M00 A3038 RMK A01 T00121004  RH  090%=      5-min Rain = 0
KSM1 101520Z 30005KT 01/M00 A3038 RMK A01 T00141003  RH  089%=      5-min Rain = 0
KSM1 101525Z 31005KT 02/00 A3038 RMK A01 T00180000  RH  089%=      5-min Rain = 0
KSM1 101530Z 30005KT 02/00 A3038 RMK A01 T00210002  RH  088%=      5-min Rain = 0
KSM1 101535Z 30005KT 02/00 A3038 RMK A01 T00230002  RH  087%=      5-min Rain = 0
KSM1 101540Z 29005KT 02/00 A3038 RMK A01 T00240003  RH  087%=      5-min Rain = 0
KSM1 101545Z 30004KT 03/01 A3038 RMK A01 T00270005  RH  086%=      5-min Rain = 0
KSM1 101550Z 31004KT 03/01 A3038 RMK A01 T00310008  RH  086%=      5-min Rain = 0
KSM1 101555Z 31003KT 04/01 A3039 RMK A01 T00350011  RH  086%=      5-min Rain = 0
KSM1 101600Z 31004KT 04/01 A3039 RMK A01 T00370012  RH  085%=      5-min Rain = 0
KSM1 101605Z 32005KT 04/01 A3038 RMK A01 T00390012  RH  084%=      5-min Rain = 0
KSM1 101610Z 32005KT 04/01 A3038 RMK A01 T00420013  RH  083%=      5-min Rain = 0
KSM1 101615Z 32004KT 05/02 A3038 RMK A01 T00460015  RH  082%=      5-min Rain = 0
KSM1 101620Z 31004KT 05/02 A3038 RMK A01 T00500018  RH  081%=      5-min Rain = 0
KSM1 101625Z 31004KT 06/02 A3038 RMK A01 T00550019  RH  079%=      5-min Rain = 0
KSM1 101630Z 31004KT 06/02 A3039 RMK A01 T00580019  RH  077%=      5-min Rain = 0
KSM1 101635Z 31004KT 06/02 A3038 RMK A01 T00600019  RH  076%=      5-min Rain = 0
KSM1 101640Z 30003KT 06/02 A3038 RMK A01 T00640021  RH  075%=      5-min Rain = 0
KSM1 101645Z 30003KT 07/02 A3038 RMK A01 T00700020  RH  072%=      5-min Rain = 0
KSM1 101650Z 29002KT 07/02 A3038 RMK A01 T00740022  RH  071%=      5-min Rain = 0
KSM1 101655Z 27003KT 08/02 A3038 RMK A01 T00770018  RH  067%=      5-min Rain = 0
KSM1 101700Z 27004KT 08/01 A3038 RMK A01 T00830010  RH  061%=      5-min Rain = 0
KSM1 101705Z 27005KT 09/M00 A3038 RMK A01 T00871002  RH  054%=      5-min Rain = 0
KSM1 101710Z 26005KT 09/M00 A3038 RMK A01 T00901004  RH  052%=      5-min Rain = 0
KSM1 101715Z 26006KT 09/M01 A3038 RMK A01 T00911009  RH  050%=      5-min Rain = 0
KSM1 101720Z 26005KT 09/M00 A3037 RMK A01 T00941003  RH  051%=      5-min Rain = 0
KSM1 101725Z 26004KT 10/M00 A3037 RMK A01 T00971003  RH  050%=      5-min Rain = 0
KSM1 101730Z 26004KT 10/M01 A3037 RMK A01 T00991009  RH  047%=      5-min Rain = 0
KSM1 101735Z 25006KT 10/M01 A3037 RMK A01 T00991009  RH  047%=      5-min Rain = 0
KSM1 101740Z 25005KT 10/M01 A3037 RMK A01 T01021011  RH  046%=      5-min Rain = 0
KSM1 101745Z 26005KT 10/M01 A3036 RMK A01 T01031013  RH  045%=      5-min Rain = 0
KSM1 101750Z 26006KT 10/M01 A3036 RMK A01 T01031009  RH  046%=      5-min Rain = 0
KSM1 101755Z 25006KT 11/M00 A3036 RMK A01 T01051004  RH  047%=      5-min Rain = 0
KSM1 101800Z 27005KT 11/M00 A3036 RMK A01 T01051004  RH  047%=      5-min Rain = 0
KSM1 101805Z 26005KT 11/M00 A3035 RMK A01 T01071002  RH  047%=      5-min Rain = 0
KSM1 101810Z 24006KT 11/M01 A3035 RMK A01 T01111008  RH  044%=      5-min Rain = 0
KSM1 101815Z 26006KT 11/M01 A3035 RMK A01 T01111006  RH  045%=      5-min Rain = 0
KSM1 101820Z 25006KT 11/M01 A3034 RMK A01 T01121009  RH  043%=      5-min Rain = 0
KSM1 101825Z 24007KT 11/M01 A3034 RMK A01 T01141010  RH  043%=      5-min Rain = 0
KSM1 101830Z 26006KT 12/M01 A3033 RMK A01 T01161008  RH  043%=      5-min Rain = 0
KSM1 101835Z 25006KT 12/M01 A3033 RMK A01 T01181010  RH  042%=      5-min Rain = 0
KSM1 101840Z 26006KT 12/M01 A3033 RMK A01 T01191010  RH  041%=      5-min Rain = 0
KSM1 101845Z 25007KT 12/M01 A3033 RMK A01 T01211007  RH  042%=      5-min Rain = 0
KSM1 101850Z 25008KT 12/M01 A3033 RMK A01 T01201007  RH  042%=      5-min Rain = 0
KSM1 101855Z 24008KT 12/M01 A3032 RMK A01 T01201012  RH  040%=      5-min Rain = 0
KSM1 101900Z 27007KT 12/M01 A3032 RMK A01 T01231006  RH  041%=      5-min Rain = 0
KSM1 101905Z 26007KT 12/M01 A3032 RMK A01 T01241007  RH  041%=      5-min Rain = 0
KSM1 101910Z 25006KT 13/M00 A3032 RMK A01 T01261002  RH  042%=      5-min Rain = 0
KSM1 101915Z 25007KT 13/00 A3031 RMK A01 T01260001  RH  043%=      5-min Rain = 0
KSM1 101920Z 26007KT 13/00 A3031 RMK A01 T012700-0  RH  042%=      5-min Rain = 0
KSM1 101925Z 26007KT 13/M00 A3031 RMK A01 T01271002  RH  041%=      5-min Rain = 0
KSM1 101930Z 26006KT 13/M00 A3031 RMK A01 T01291002  RH  041%=      5-min Rain = 0
KSM1 101935Z 24008KT 13/M01 A3031 RMK A01 T01291010  RH  039%=      5-min Rain = 0
KSM1 101940Z 24007G12KT 13/M01 A3031 RMK A01 T01321007  RH  039%=      5-min Rain = 0
KSM1 101945Z 25008KT 13/M02 A303 RMK A01 T01321015  RH  036%=      5-min Rain = 0
KSM1 101950Z 25009KT 13/M02 A303 RMK A01 T01321018  RH  036%=      5-min Rain = 0
KSM1 101955Z 25008KT 13/M02 A303 RMK A01 T01321016  RH  036%=      5-min Rain = 0
KSM1 102000Z 25008KT 13/M01 A303 RMK A01 T01331013  RH  037%=      5-min Rain = 0
KSM1 102005Z 26007KT 13/M02 A3029 RMK A01 T01341016  RH  036%=      5-min Rain = 0
KSM1 102010Z 25008KT 13/M02 A3029 RMK A01 T01331018  RH  035%=      5-min Rain = 0
KSM1 102015Z 25007KT 13/M02 A3029 RMK A01 T01301015  RH  037%=      5-min Rain = 0
KSM1 102020Z 26007KT 13/M02 A3029 RMK A01 T01341015  RH  036%=      5-min Rain = 0
KSM1 102025Z 27008KT 13/M01 A3028 RMK A01 T01331013  RH  037%=      5-min Rain = 0
KSM1 102030Z 24007KT 13/M02 A3028 RMK A01 T01341020  RH  035%=      5-min Rain = 0
KSM1 102035Z 24006KT 14/M01 A3028 RMK A01 T01361014  RH  036%=      5-min Rain = 0
KSM1 102040Z 26006KT 14/M01 A3028 RMK A01 T01371010  RH  037%=      5-min Rain = 0
KSM1 102045Z 26006KT 14/M01 A3028 RMK A01 T01351011  RH  037%=      5-min Rain = 0
KSM1 102050Z 26006KT 14/M02 A3028 RMK A01 T01361015  RH  035%=      5-min Rain = 0
KSM1 102055Z 26007KT 14/M02 A3027 RMK A01 T01361022  RH  034%=      5-min Rain = 0
KSM1 102100Z 24005G10KT 14/M02 A3027 RMK A01 T01371015  RH  035%=      5-min Rain = 0
KSM1 102105Z 26007KT 14/M02 A3027 RMK A01 T01391015  RH  035%=      5-min Rain = 0
KSM1 102110Z 26005KT 14/M02 A3027 RMK A01 T01381018  RH  034%=      5-min Rain = 0
KSM1 102115Z 23006KT 14/M02 A3027 RMK A01 T01411016  RH  034%=      5-min Rain = 0
KSM1 102120Z 22006KT 14/M02 A3027 RMK A01 T01431022  RH  032%=      5-min Rain = 0
KSM1 102125Z 22006KT 14/M02 A3027 RMK A01 T01441022  RH  032%=      5-min Rain = 0
KSM1 102130Z 25008KT 14/M03 A3027 RMK A01 T01411025  RH  032%=      5-min Rain = 0
KSM1 102135Z 25007KT 14/M02 A3027 RMK A01 T01411022  RH  032%=      5-min Rain = 0
KSM1 102140Z 25007KT 14/M03 A3027 RMK A01 T01411028  RH  031%=      5-min Rain = 0
KSM1 102145Z 24007KT 14/M03 A3027 RMK A01 T01401031  RH  031%=      5-min Rain = 0
KSM1 102150Z 24007KT 14/M03 A3027 RMK A01 T01381032  RH  031%=      5-min Rain = 0
KSM1 102155Z 26007KT 14/M03 A3027 RMK A01 T01381027  RH  032%=      5-min Rain = 0
KSM1 102200Z 25006KT 14/M02 A3027 RMK A01 T01391022  RH  033%=      5-min Rain = 0
KSM1 102205Z 25006KT 14/M02 A3027 RMK A01 T01401023  RH  032%=      5-min Rain = 0
KSM1 102210Z 26007KT 14/M02 A3027 RMK A01 T01401024  RH  032%=      5-min Rain = 0
KSM1 102215Z 24007KT 14/M02 A3027 RMK A01 T01381024  RH  033%=      5-min Rain = 0
KSM1 102220Z 24005KT 14/M02 A3027 RMK A01 T01361023  RH  033%=      5-min Rain = 0
KSM1 102225Z 25007KT 13/M02 A3027 RMK A01 T01321024  RH  034%=      5-min Rain = 0
KSM1 102230Z 25005KT 13/M02 A3027 RMK A01 T01311019  RH  036%=      5-min Rain = 0
KSM1 102235Z 25005KT 13/M02 A3027 RMK A01 T01341019  RH  035%=      5-min Rain = 0
KSM1 102240Z 25006KT 13/M02 A3027 RMK A01 T01341019  RH  035%=      5-min Rain = 0
KSM1 102245Z 23006KT 13/M02 A3027 RMK A01 T01321021  RH  035%=      5-min Rain = 0
KSM1 102250Z 23005KT 13/M02 A3027 RMK A01 T01321020  RH  035%=      5-min Rain = 0
KSM1 102255Z 22005KT 13/M02 A3027 RMK A01 T01321016  RH  036%=      5-min Rain = 0.01
KSM1 102300Z 23005KT 13/M02 A3027 RMK A01 T01311021  RH  035%=      5-min Rain = 0
KSM1 102305Z 23006KT 13/M02 A3027 RMK A01 T01291024  RH  035%=      5-min Rain = 0
KSM1 102310Z 22006KT 13/M02 A3027 RMK A01 T01261017  RH  037%=      5-min Rain = 0
KSM1 102315Z 22005KT 12/M01 A3027 RMK A01 T01221014  RH  039%=      5-min Rain = 0
KSM1 102320Z 22004KT 12/M01 A3027 RMK A01 T01171011  RH  041%=      5-min Rain = 0
KSM1 102325Z 23004KT 11/M01 A3027 RMK A01 T01131009  RH  043%=      5-min Rain = 0
KSM1 102330Z 23003KT 11/M01 A3027 RMK A01 T01121013  RH  042%=      5-min Rain = 0
KSM1 102335Z 23003KT 11/M02 A3027 RMK A01 T01131015  RH  041%=      5-min Rain = 0
KSM1 102340Z 23003KT 11/M01 A3027 RMK A01 T01121013  RH  042%=      5-min Rain = 0
KSM1 102345Z 23003KT 11/M01 A3027 RMK A01 T01081013  RH  043%=      5-min Rain = 0
KSM1 102350Z 22003KT 11/M01 A3027 RMK A01 T01061012  RH  044%=      5-min Rain = 0
KSM1 102355Z 19007KT 10/M00 A3027 RMK A01 T01001002  RH  050%=      5-min Rain = 0
KSM1 110000Z 20007KT 10/01 A3027 RMK A01 T00950013  RH  057%=      5-min Rain = 0
KSM1 110005Z 20007KT 09/02 A3028 RMK A01 T00940018  RH  060%=      5-min Rain = 0
KSM1 110010Z 20007KT 09/02 A3028 RMK A01 T00920020  RH  062%=      5-min Rain = 0
KSM1 110015Z 20006KT 09/02 A3028 RMK A01 T00900022  RH  063%=      5-min Rain = 0
KSM1 110020Z 20007KT 09/02 A3028 RMK A01 T00870023  RH  065%=      5-min Rain = 0
KSM1 110025Z 20007KT 08/02 A3028 RMK A01 T00830024  RH  067%=      5-min Rain = 0
KSM1 110030Z 20007KT 08/02 A3028 RMK A01 T00820023  RH  068%=      5-min Rain = 0
KSM1 110035Z 21006KT 08/02 A3028 RMK A01 T00820024  RH  068%=      5-min Rain = 0
KSM1 110040Z 21006KT 08/02 A3028 RMK A01 T00810023  RH  068%=      5-min Rain = 0
KSM1 110045Z 21007KT 08/02 A3028 RMK A01 T00800023  RH  068%=      5-min Rain = 0
KSM1 110050Z 21008KT 08/02 A3029 RMK A01 T00790023  RH  069%=      5-min Rain = 0
KSM1 110055Z 21008KT 08/02 A3029 RMK A01 T00770023  RH  070%=      5-min Rain = 0
KSM1 110100Z 21008KT 08/02 A3029 RMK A01 T00750023  RH  071%=      5-min Rain = 0
KSM1 110105Z 21008KT 07/02 A3029 RMK A01 T00720023  RH  073%=      5-min Rain = 0
KSM1 110110Z 21007KT 07/02 A3029 RMK A01 T00700024  RH  074%=      5-min Rain = 0
KSM1 110115Z 21007KT 07/02 A3029 RMK A01 T00680023  RH  074%=      5-min Rain = 0
KSM1 110120Z 21007KT 07/02 A3029 RMK A01 T00660023  RH  075%=      5-min Rain = 0
KSM1 110125Z 21007KT 06/02 A3029 RMK A01 T00640023  RH  076%=      5-min Rain = 0
KSM1 110130Z 21007KT 06/02 A3029 RMK A01 T00640023  RH  076%=      5-min Rain = 0
KSM1 110135Z 21008KT 06/02 A3029 RMK A01 T00620022  RH  077%=      5-min Rain = 0
KSM1 110140Z 21007KT 06/02 A3029 RMK A01 T00600022  RH  078%=      5-min Rain = 0
KSM1 110145Z 22006KT 06/02 A303 RMK A01 T00560021  RH  079%=      5-min Rain = 0
KSM1 110150Z 22007KT 05/02 A303 RMK A01 T00540021  RH  081%=      5-min Rain = 0
KSM1 110155Z 23008KT 05/02 A303 RMK A01 T00530021  RH  082%=      5-min Rain = 0
KSM1 110200Z 22007KT 05/02 A303 RMK A01 T00510020  RH  082%=      5-min Rain = 0
KSM1 110205Z 22007KT 05/02 A303 RMK A01 T00480020  RH  083%=      5-min Rain = 0
KSM1 110210Z 23007KT 05/02 A303 RMK A01 T00460020  RH  084%=      5-min Rain = 0
KSM1 110215Z 23007KT 05/02 A303 RMK A01 T00460020  RH  084%=      5-min Rain = 0
KSM1 110220Z 23007KT 05/02 A303 RMK A01 T00450019  RH  084%=      5-min Rain = 0
KSM1 110225Z 23006KT 04/02 A303 RMK A01 T00440019  RH  085%=      5-min Rain = 0
KSM1 110230Z 23007KT 04/02 A303 RMK A01 T00440019  RH  085%=      5-min Rain = 0
KSM1 110235Z 23006KT 04/02 A303 RMK A01 T00420018  RH  085%=      5-min Rain = 0
KSM1 110240Z 22006KT 04/02 A303 RMK A01 T00410017  RH  086%=      5-min Rain = 0
KSM1 110245Z 22006KT 04/02 A303 RMK A01 T00390017  RH  087%=      5-min Rain = 0
KSM1 110250Z 23005KT 04/02 A303 RMK A01 T00390018  RH  087%=      5-min Rain = 0
KSM1 110255Z 23005KT 04/02 A303 RMK A01 T00380017  RH  087%=      5-min Rain = 0
KSM1 110300Z 22005KT 04/02 A303 RMK A01 T00360015  RH  087%=      5-min Rain = 0
KSM1 110305Z 22004KT 03/01 A303 RMK A01 T00330013  RH  088%=      5-min Rain = 0
KSM1 110310Z 22005KT 03/01 A303 RMK A01 T00310013  RH  089%=      5-min Rain = 0
KSM1 110315Z 23005KT 03/02 A303 RMK A01 T00320015  RH  090%=      5-min Rain = 0
KSM1 110320Z 23005KT 03/01 A303 RMK A01 T00310014  RH  090%=      5-min Rain = 0
KSM1 110325Z 23007KT 03/01 A303 RMK A01 T00300014  RH  090%=      5-min Rain = 0
KSM1 110330Z 23008KT 03/01 A303 RMK A01 T00300014  RH  090%=      5-min Rain = 0
KSM1 110335Z 23007KT 03/01 A303 RMK A01 T00300014  RH  090%=      5-min Rain = 0
KSM1 110340Z 23006KT 03/01 A303 RMK A01 T00300013  RH  090%=      5-min Rain = 0
KSM1 110345Z 23006KT 03/01 A303 RMK A01 T00290013  RH  091%=      5-min Rain = 0
KSM1 110350Z 23005KT 03/01 A303 RMK A01 T00280012  RH  091%=      5-min Rain = 0
KSM1 110355Z 23005KT 03/01 A303 RMK A01 T00260010  RH  091%=      5-min Rain = 0
KSM1 110400Z 24006KT 02/01 A303 RMK A01 T00230008  RH  091%=      5-min Rain = 0
KSM1 110405Z 24006KT 02/01 A303 RMK A01 T00220009  RH  092%=      5-min Rain = 0
KSM1 110410Z 23005KT 02/01 A303 RMK A01 T00210009  RH  093%=      5-min Rain = 0
KSM1 110415Z 24006KT 02/01 A303 RMK A01 T00210010  RH  094%=      5-min Rain = 0
KSM1 110420Z 24007KT 02/01 A303 RMK A01 T00210010  RH  094%=      5-min Rain = 0
KSM1 110425Z 24007KT 02/01 A303 RMK A01 T00200010  RH  094%=      5-min Rain = 0
KSM1 110430Z 23006KT 02/01 A303 RMK A01 T00190009  RH  094%=      5-min Rain = 0
KSM1 110435Z 23005KT 02/01 A303 RMK A01 T00180008  RH  094%=      5-min Rain = 0
KSM1 110440Z 24006KT 02/01 A303 RMK A01 T00170007  RH  095%=      5-min Rain = 0
KSM1 110445Z 24006KT 02/01 A3031 RMK A01 T00170008  RH  095%=      5-min Rain = 0
KSM1 110450Z 24006KT 02/01 A3031 RMK A01 T00170009  RH  095%=      5-min Rain = 0
KSM1 110455Z 24007KT 02/01 A3031 RMK A01 T00170008  RH  095%=      5-min Rain = 0
KSM1 110500Z 24007KT 02/01 A303 RMK A01 T00160007  RH  095%=      5-min Rain = 0
KSM1 110505Z 24008KT 02/01 A303 RMK A01 T00150006  RH  096%=      5-min Rain = 0
KSM1 110510Z 24007KT 01/01 A303 RMK A01 T00140006  RH  096%=      5-min Rain = 0
KSM1 110515Z 24007KT 01/01 A303 RMK A01 T00130006  RH  096%=      5-min Rain = 0
KSM1 110520Z 24007KT 01/01 A303 RMK A01 T00130006  RH  096%=      5-min Rain = 0
KSM1 110525Z 24007KT 01/00 A303 RMK A01 T00120004  RH  096%=      5-min Rain = 0
KSM1 110530Z 24008KT 01/00 A303 RMK A01 T00100003  RH  096%=      5-min Rain = 0
KSM1 110535Z 24008KT 01/00 A303 RMK A01 T00080001  RH  096%=      5-min Rain = 0
KSM1 110540Z 24007KT 01/00 A3029 RMK A01 T00070000  RH  097%=      5-min Rain = 0
KSM1 110545Z 24007KT 01/00 A3029 RMK A01 T000600-0  RH  097%=      5-min Rain = 0
KSM1 110550Z 24007KT 01/00 A3029 RMK A01 T000500-0  RH  097%=      5-min Rain = 0
KSM1 110555Z 24007KT 01/00 A3029 RMK A01 T000500-0  RH  097%=      5-min Rain = 0

Page generated in 0.0084 seconds.